sensor_id;sensor_type;location;lat;lon;timestamp;temperature;humidity
26479;DHT22;14163;-26.142;27.992;2023-11-22T00:00:52;26.20;99.90
26479;DHT22;14163;-26.142;27.992;2023-11-22T02:13:56;21.20;99.90
26479;DHT22;14163;-26.142;27.992;2023-11-22T02:16:25;21.20;99.90
26479;DHT22;14163;-26.142;27.992;2023-11-22T02:18:54;21.80;99.90
26479;DHT22;14163;-26.142;27.992;2023-11-22T02:21:24;22.50;99.90
26479;DHT22;14163;-26.142;27.992;2023-11-22T02:23:54;23.20;99.90
26479;DHT22;14163;-26.142;27.992;2023-11-22T02:26:24;23.70;99.90
26479;DHT22;14163;-26.142;27.992;2023-11-22T02:28:53;24.10;99.90
26479;DHT22;14163;-26.142;27.992;2023-11-22T02:31:22;24.40;99.90
26479;DHT22;14163;-26.142;27.992;2023-11-22T02:33:51;24.70;99.90
26479;DHT22;14163;-26.142;27.992;2023-11-22T02:36:20;24.90;99.90
26479;DHT22;14163;-26.142;27.992;2023-11-22T02:38:53;25.00;99.90
26479;DHT22;14163;-26.142;27.992;2023-11-22T02:41:22;25.10;99.90
26479;DHT22;14163;-26.142;27.992;2023-11-22T02:43:52;25.20;99.90
26479;DHT22;14163;-26.142;27.992;2023-11-22T02:46:21;25.30;99.90
26479;DHT22;14163;-26.142;27.992;2023-11-22T02:48:51;25.30;99.90
26479;DHT22;14163;-26.142;27.992;2023-11-22T02:51:20;25.40;99.90
26479;DHT22;14163;-26.142;27.992;2023-11-22T02:53:50;25.40;99.90
26479;DHT22;14163;-26.142;27.992;2023-11-22T02:56:20;25.40;99.90
26479;DHT22;14163;-26.142;27.992;2023-11-22T02:58:50;25.40;99.90
26479;DHT22;14163;-26.142;27.992;2023-11-22T03:01:19;25.50;99.90
26479;DHT22;14163;-26.142;27.992;2023-11-22T03:03:48;25.50;99.90
26479;DHT22;14163;-26.142;27.992;2023-11-22T03:06:17;25.50;99.90
26479;DHT22;14163;-26.142;27.992;2023-11-22T03:08:46;25.50;99.90
26479;DHT22;14163;-26.142;27.992;2023-11-22T03:11:15;25.50;99.90
26479;DHT22;14163;-26.142;27.992;2023-11-22T03:13:48;25.40;99.90
26479;DHT22;14163;-26.142;27.992;2023-11-22T03:16:17;25.40;99.90
26479;DHT22;14163;-26.142;27.992;2023-11-22T03:18:46;25.30;99.90
26479;DHT22;14163;-26.142;27.992;2023-11-22T03:21:17;25.40;99.90
26479;DHT22;14163;-26.142;27.992;2023-11-22T03:23:47;25.40;99.90
26479;DHT22;14163;-26.142;27.992;2023-11-22T03:26:17;25.40;99.90
26479;DHT22;14163;-26.142;27.992;2023-11-22T03:28:48;25.40;99.90
26479;DHT22;14163;-26.142;27.992;2023-11-22T03:31:17;25.40;99.90
26479;DHT22;14163;-26.142;27.992;2023-11-22T03:33:46;25.50;99.90
26479;DHT22;14163;-26.142;27.992;2023-11-22T03:36:15;25.40;99.90
26479;DHT22;14163;-26.142;27.992;2023-11-22T03:38:44;25.40;99.90
26479;DHT22;14163;-26.142;27.992;2023-11-22T03:41:13;25.40;99.90
26479;DHT22;14163;-26.142;27.992;2023-11-22T03:43:44;25.50;99.90
26479;DHT22;14163;-26.142;27.992;2023-11-22T03:46:15;25.50;99.90
26479;DHT22;14163;-26.142;27.992;2023-11-22T03:48:44;25.50;99.90
26479;DHT22;14163;-26.142;27.992;2023-11-22T03:51:14;25.50;99.90
26479;DHT22;14163;-26.142;27.992;2023-11-22T03:53:43;25.60;99.90
26479;DHT22;14163;-26.142;27.992;2023-11-22T03:56:12;25.70;99.90
26479;DHT22;14163;-26.142;27.992;2023-11-22T03:58:41;25.70;99.90
26479;DHT22;14163;-26.142;27.992;2023-11-22T04:01:11;25.70;99.90
26479;DHT22;14163;-26.142;27.992;2023-11-22T04:03:41;25.80;99.90
26479;DHT22;14163;-26.142;27.992;2023-11-22T04:06:11;25.80;99.90
26479;DHT22;14163;-26.142;27.992;2023-11-22T04:08:40;25.80;99.90
26479;DHT22;14163;-26.142;27.992;2023-11-22T04:11:12;25.80;99.90
26479;DHT22;14163;-26.142;27.992;2023-11-22T04:13:42;25.90;99.90
26479;DHT22;14163;-26.142;27.992;2023-11-22T04:16:11;25.90;99.90
26479;DHT22;14163;-26.142;27.992;2023-11-22T04:18:42;25.90;99.90
26479;DHT22;14163;-26.142;27.992;2023-11-22T04:21:11;26.00;99.90
26479;DHT22;14163;-26.142;27.992;2023-11-22T04:23:40;26.00;99.90
26479;DHT22;14163;-26.142;27.992;2023-11-22T04:26:09;26.00;99.90
26479;DHT22;14163;-26.142;27.992;2023-11-22T04:28:38;26.10;99.90
26479;DHT22;14163;-26.142;27.992;2023-11-22T04:31:08;26.10;99.90
26479;DHT22;14163;-26.142;27.992;2023-11-22T04:33:37;26.20;99.90
26479;DHT22;14163;-26.142;27.992;2023-11-22T04:36:08;26.20;99.90
26479;DHT22;14163;-26.142;27.992;2023-11-22T04:38:38;26.20;99.90
26479;DHT22;14163;-26.142;27.992;2023-11-22T04:41:08;26.20;99.90
26479;DHT22;14163;-26.142;27.992;2023-11-22T04:43:37;26.30;99.90
26479;DHT22;14163;-26.142;27.992;2023-11-22T04:46:06;26.30;99.90
26479;DHT22;14163;-26.142;27.992;2023-11-22T04:48:35;26.30;99.90
26479;DHT22;14163;-26.142;27.992;2023-11-22T04:51:09;26.30;99.90
26479;DHT22;14163;-26.142;27.992;2023-11-22T04:53:38;26.40;99.90
26479;DHT22;14163;-26.142;27.992;2023-11-22T04:56:07;26.40;99.90
26479;DHT22;14163;-26.142;27.992;2023-11-22T04:58:36;26.50;99.90
26479;DHT22;14163;-26.142;27.992;2023-11-22T05:01:05;26.50;99.90
26479;DHT22;14163;-26.142;27.992;2023-11-22T05:03:36;26.60;99.90
26479;DHT22;14163;-26.142;27.992;2023-11-22T05:06:08;26.70;99.90
26479;DHT22;14163;-26.142;27.992;2023-11-22T05:08:37;26.70;99.90
26479;DHT22;14163;-26.142;27.992;2023-11-22T05:11:06;26.60;99.90
26479;DHT22;14163;-26.142;27.992;2023-11-22T05:13:36;26.70;99.90
26479;DHT22;14163;-26.142;27.992;2023-11-22T05:16:06;26.70;99.90
26479;DHT22;14163;-26.142;27.992;2023-11-22T05:18:35;26.70;99.90
26479;DHT22;14163;-26.142;27.992;2023-11-22T05:21:04;26.80;99.90
26479;DHT22;14163;-26.142;27.992;2023-11-22T05:23:35;26.90;99.90
26479;DHT22;14163;-26.142;27.992;2023-11-22T05:26:05;26.90;99.90
26479;DHT22;14163;-26.142;27.992;2023-11-22T05:28:35;26.90;99.90
26479;DHT22;14163;-26.142;27.992;2023-11-22T05:31:04;26.80;99.90
26479;DHT22;14163;-26.142;27.992;2023-11-22T05:33:33;26.80;99.90
26479;DHT22;14163;-26.142;27.992;2023-11-22T05:36:02;26.80;99.90
26479;DHT22;14163;-26.142;27.992;2023-11-22T05:38:32;26.80;99.90
26479;DHT22;14163;-26.142;27.992;2023-11-22T05:41:03;26.90;99.90
26479;DHT22;14163;-26.142;27.992;2023-11-22T05:43:32;26.90;99.90
26479;DHT22;14163;-26.142;27.992;2023-11-22T05:46:03;26.90;99.90
26479;DHT22;14163;-26.142;27.992;2023-11-22T05:48:32;27.00;99.90
26479;DHT22;14163;-26.142;27.992;2023-11-22T05:51:01;27.00;99.90
26479;DHT22;14163;-26.142;27.992;2023-11-22T05:53:30;26.90;99.90
26479;DHT22;14163;-26.142;27.992;2023-11-22T05:56:00;26.80;99.90
26479;DHT22;14163;-26.142;27.992;2023-11-22T05:58:31;26.90;99.90
26479;DHT22;14163;-26.142;27.992;2023-11-22T06:01:00;26.90;99.90
26479;DHT22;14163;-26.142;27.992;2023-11-22T06:03:29;26.90;99.90
26479;DHT22;14163;-26.142;27.992;2023-11-22T06:05:58;26.90;99.90
26479;DHT22;14163;-26.142;27.992;2023-11-22T06:08:27;27.00;99.90
26479;DHT22;14163;-26.142;27.992;2023-11-22T06:10:57;27.10;99.90
26479;DHT22;14163;-26.142;27.992;2023-11-22T06:13:27;27.20;99.90
26479;DHT22;14163;-26.142;27.992;2023-11-22T06:15:57;27.30;99.90
26479;DHT22;14163;-26.142;27.992;2023-11-22T06:18:27;27.30;99.90
26479;DHT22;14163;-26.142;27.992;2023-11-22T06:20:57;27.20;99.90
26479;DHT22;14163;-26.142;27.992;2023-11-22T06:23:26;27.20;99.90
26479;DHT22;14163;-26.142;27.992;2023-11-22T06:25:55;27.30;99.90
26479;DHT22;14163;-26.142;27.992;2023-11-22T06:28:24;27.40;99.90
26479;DHT22;14163;-26.142;27.992;2023-11-22T06:30:54;27.50;99.90
26479;DHT22;14163;-26.142;27.992;2023-11-22T06:33:24;27.60;99.90
26479;DHT22;14163;-26.142;27.992;2023-11-22T06:35:53;27.60;99.90
26479;DHT22;14163;-26.142;27.992;2023-11-22T06:38:23;27.80;99.90
26479;DHT22;14163;-26.142;27.992;2023-11-22T06:40:52;27.80;99.90
26479;DHT22;14163;-26.142;27.992;2023-11-22T06:43:21;27.80;99.90
26479;DHT22;14163;-26.142;27.992;2023-11-22T06:45:50;27.80;99.90
26479;DHT22;14163;-26.142;27.992;2023-11-22T06:48:19;27.90;99.90
26479;DHT22;14163;-26.142;27.992;2023-11-22T06:50:50;27.90;99.90
26479;DHT22;14163;-26.142;27.992;2023-11-22T06:53:19;27.90;99.90
26479;DHT22;14163;-26.142;27.992;2023-11-22T06:55:48;27.80;99.90
26479;DHT22;14163;-26.142;27.992;2023-11-22T06:58:17;27.90;99.90
26479;DHT22;14163;-26.142;27.992;2023-11-22T07:00:46;27.80;99.90
26479;DHT22;14163;-26.142;27.992;2023-11-22T07:03:15;27.80;99.90
26479;DHT22;14163;-26.142;27.992;2023-11-22T07:05:44;27.80;99.90
26479;DHT22;14163;-26.142;27.992;2023-11-22T07:08:15;27.90;99.90
26479;DHT22;14163;-26.142;27.992;2023-11-22T07:10:45;27.90;99.90
26479;DHT22;14163;-26.142;27.992;2023-11-22T07:13:14;27.90;99.90
26479;DHT22;14163;-26.142;27.992;2023-11-22T07:15:45;28.00;99.90
26479;DHT22;14163;-26.142;27.992;2023-11-22T07:18:15;28.00;99.90
26479;DHT22;14163;-26.142;27.992;2023-11-22T07:20:44;28.20;99.90
26479;DHT22;14163;-26.142;27.992;2023-11-22T07:23:16;28.30;99.90
26479;DHT22;14163;-26.142;27.992;2023-11-22T07:25:46;28.40;99.90
26479;DHT22;14163;-26.142;27.992;2023-11-22T07:28:16;28.50;99.90
26479;DHT22;14163;-26.142;27.992;2023-11-22T07:30:45;28.60;99.90
26479;DHT22;14163;-26.142;27.992;2023-11-22T07:33:15;28.60;99.90
26479;DHT22;14163;-26.142;27.992;2023-11-22T07:35:47;28.50;99.90
26479;DHT22;14163;-26.142;27.992;2023-11-22T07:38:18;28.50;99.90
26479;DHT22;14163;-26.142;27.992;2023-11-22T07:40:47;28.40;99.90
26479;DHT22;14163;-26.142;27.992;2023-11-22T07:43:17;28.40;99.90
26479;DHT22;14163;-26.142;27.992;2023-11-22T07:45:47;28.50;99.90
26479;DHT22;14163;-26.142;27.992;2023-11-22T07:48:17;28.50;99.90
26479;DHT22;14163;-26.142;27.992;2023-11-22T07:50:49;28.60;99.90
26479;DHT22;14163;-26.142;27.992;2023-11-22T07:53:21;28.80;99.90
26479;DHT22;14163;-26.142;27.992;2023-11-22T07:55:56;28.90;99.90
26479;DHT22;14163;-26.142;27.992;2023-11-22T07:58:25;28.90;99.90
26479;DHT22;14163;-26.142;27.992;2023-11-22T08:00:54;28.90;99.90
26479;DHT22;14163;-26.142;27.992;2023-11-22T10:15:23;27.80;99.90
26479;DHT22;14163;-26.142;27.992;2023-11-22T10:17:55;28.10;99.90
26479;DHT22;14163;-26.142;27.992;2023-11-22T10:20:25;28.80;99.90
26479;DHT22;14163;-26.142;27.992;2023-11-22T10:22:54;29.50;99.90
26479;DHT22;14163;-26.142;27.992;2023-11-22T10:25:24;30.10;99.90
26479;DHT22;14163;-26.142;27.992;2023-11-22T10:27:53;30.60;99.90
26479;DHT22;14163;-26.142;27.992;2023-11-22T10:30:24;30.90;99.90
26479;DHT22;14163;-26.142;27.992;2023-11-22T10:32:55;31.10;99.90
26479;DHT22;14163;-26.142;27.992;2023-11-22T10:35:24;31.40;99.90
26479;DHT22;14163;-26.142;27.992;2023-11-22T10:37:53;31.60;99.90
26479;DHT22;14163;-26.142;27.992;2023-11-22T10:40:23;31.90;99.90
26479;DHT22;14163;-26.142;27.992;2023-11-22T10:42:52;32.10;99.90
26479;DHT22;14163;-26.142;27.992;2023-11-22T10:45:26;32.10;99.90
26479;DHT22;14163;-26.142;27.992;2023-11-22T10:47:57;32.10;99.90
26479;DHT22;14163;-26.142;27.992;2023-11-22T10:50:27;32.10;99.90
26479;DHT22;14163;-26.142;27.992;2023-11-22T10:52:58;32.30;99.90
26479;DHT22;14163;-26.142;27.992;2023-11-22T10:55:28;32.50;99.30
26479;DHT22;14163;-26.142;27.992;2023-11-22T10:58:02;32.60;97.60
26479;DHT22;14163;-26.142;27.992;2023-11-22T11:00:34;32.60;97.50
26479;DHT22;14163;-26.142;27.992;2023-11-22T11:03:07;32.50;96.90
26479;DHT22;14163;-26.142;27.992;2023-11-22T11:05:38;32.60;97.10
26479;DHT22;14163;-26.142;27.992;2023-11-22T11:08:08;32.70;96.90
26479;DHT22;14163;-26.142;27.992;2023-11-22T11:10:39;32.90;96.00
26479;DHT22;14163;-26.142;27.992;2023-11-22T11:13:09;33.00;95.20
26479;DHT22;14163;-26.142;27.992;2023-11-22T11:15:42;33.10;93.50
26479;DHT22;14163;-26.142;27.992;2023-11-22T11:18:14;33.20;94.90
26479;DHT22;14163;-26.142;27.992;2023-11-22T11:20:48;33.20;94.50
26479;DHT22;14163;-26.142;27.992;2023-11-22T11:23:19;33.30;93.60
26479;DHT22;14163;-26.142;27.992;2023-11-22T11:25:49;33.50;93.50
26479;DHT22;14163;-26.142;27.992;2023-11-22T11:28:18;33.50;91.50
26479;DHT22;14163;-26.142;27.992;2023-11-22T11:30:49;33.50;91.10
26479;DHT22;14163;-26.142;27.992;2023-11-22T11:33:27;33.60;90.10
26479;DHT22;14163;-26.142;27.992;2023-11-22T11:35:57;33.90;91.50
26479;DHT22;14163;-26.142;27.992;2023-11-22T11:38:31;34.20;91.30
26479;DHT22;14163;-26.142;27.992;2023-11-22T11:41:08;34.50;90.60
26479;DHT22;14163;-26.142;27.992;2023-11-22T11:43:42;34.60;90.40
26479;DHT22;14163;-26.142;27.992;2023-11-22T11:46:15;34.60;90.00
26479;DHT22;14163;-26.142;27.992;2023-11-22T11:48:45;34.60;89.30
26479;DHT22;14163;-26.142;27.992;2023-11-22T11:51:17;34.60;87.50
26479;DHT22;14163;-26.142;27.992;2023-11-22T11:53:47;34.50;85.40
26479;DHT22;14163;-26.142;27.992;2023-11-22T11:56:16;34.60;88.50
26479;DHT22;14163;-26.142;27.992;2023-11-22T11:58:47;34.50;87.70
26479;DHT22;14163;-26.142;27.992;2023-11-22T14:10:31;29.90;95.80
26479;DHT22;14163;-26.142;27.992;2023-11-22T14:13:00;30.10;93.90
26479;DHT22;14163;-26.142;27.992;2023-11-22T14:15:30;30.70;93.70
26479;DHT22;14163;-26.142;27.992;2023-11-22T14:18:00;31.40;94.30
26479;DHT22;14163;-26.142;27.992;2023-11-22T14:20:30;32.10;91.90
26479;DHT22;14163;-26.142;27.992;2023-11-22T14:23:01;32.70;92.30
26479;DHT22;14163;-26.142;27.992;2023-11-22T14:25:32;33.10;90.90
26479;DHT22;14163;-26.142;27.992;2023-11-22T14:28:01;33.40;90.20
26479;DHT22;14163;-26.142;27.992;2023-11-22T14:30:30;33.70;89.80
26479;DHT22;14163;-26.142;27.992;2023-11-22T14:33:02;33.90;90.60
26479;DHT22;14163;-26.142;27.992;2023-11-22T14:35:34;34.00;89.60
26479;DHT22;14163;-26.142;27.992;2023-11-22T14:38:04;34.00;86.80
26479;DHT22;14163;-26.142;27.992;2023-11-22T14:40:35;34.10;86.30
26479;DHT22;14163;-26.142;27.992;2023-11-22T14:43:06;34.10;83.70
26479;DHT22;14163;-26.142;27.992;2023-11-22T14:45:35;34.10;82.80
26479;DHT22;14163;-26.142;27.992;2023-11-22T14:48:06;34.30;84.50
26479;DHT22;14163;-26.142;27.992;2023-11-22T14:50:36;34.20;86.70
26479;DHT22;14163;-26.142;27.992;2023-11-22T14:53:06;34.20;87.90
26479;DHT22;14163;-26.142;27.992;2023-11-22T14:55:38;34.10;93.40
26479;DHT22;14163;-26.142;27.992;2023-11-22T14:58:08;33.90;97.70
26479;DHT22;14163;-26.142;27.992;2023-11-22T15:00:38;33.70;99.70
26479;DHT22;14163;-26.142;27.992;2023-11-22T15:03:07;33.50;99.90
26479;DHT22;14163;-26.142;27.992;2023-11-22T15:05:37;33.20;99.90
26479;DHT22;14163;-26.142;27.992;2023-11-22T15:08:06;33.10;99.90
26479;DHT22;14163;-26.142;27.992;2023-11-22T15:10:37;33.00;99.90
26479;DHT22;14163;-26.142;27.992;2023-11-22T15:13:06;32.80;99.90
26479;DHT22;14163;-26.142;27.992;2023-11-22T15:15:37;32.70;99.90
26479;DHT22;14163;-26.142;27.992;2023-11-22T15:18:06;32.70;99.90
26479;DHT22;14163;-26.142;27.992;2023-11-22T15:20:35;32.60;99.90
26479;DHT22;14163;-26.142;27.992;2023-11-22T15:23:05;32.50;99.90
26479;DHT22;14163;-26.142;27.992;2023-11-22T15:25:38;32.40;99.90
26479;DHT22;14163;-26.142;27.992;2023-11-22T15:28:08;32.40;99.90
26479;DHT22;14163;-26.142;27.992;2023-11-22T15:30:38;32.30;99.90
26479;DHT22;14163;-26.142;27.992;2023-11-22T15:33:07;32.30;99.90
26479;DHT22;14163;-26.142;27.992;2023-11-22T15:35:36;32.30;99.90
26479;DHT22;14163;-26.142;27.992;2023-11-22T15:38:05;32.20;99.60
26479;DHT22;14163;-26.142;27.992;2023-11-22T15:40:34;32.20;99.90
26479;DHT22;14163;-26.142;27.992;2023-11-22T15:43:05;32.20;99.90
26479;DHT22;14163;-26.142;27.992;2023-11-22T15:45:34;32.20;99.90
26479;DHT22;14163;-26.142;27.992;2023-11-22T15:48:04;32.20;99.90
26479;DHT22;14163;-26.142;27.992;2023-11-22T15:50:33;32.10;99.90
26479;DHT22;14163;-26.142;27.992;2023-11-22T15:53:02;32.10;99.90
26479;DHT22;14163;-26.142;27.992;2023-11-22T15:55:33;32.00;99.90
26479;DHT22;14163;-26.142;27.992;2023-11-22T15:58:04;32.00;99.90
26479;DHT22;14163;-26.142;27.992;2023-11-22T16:00:33;32.00;99.90
26479;DHT22;14163;-26.142;27.992;2023-11-22T16:03:02;31.90;99.90
26479;DHT22;14163;-26.142;27.992;2023-11-22T16:05:37;32.00;99.90
26479;DHT22;14163;-26.142;27.992;2023-11-22T16:08:06;31.90;99.90
26479;DHT22;14163;-26.142;27.992;2023-11-22T16:10:35;32.00;99.90
26479;DHT22;14163;-26.142;27.992;2023-11-22T16:13:06;31.90;99.90
26479;DHT22;14163;-26.142;27.992;2023-11-22T16:15:35;31.90;99.90
26479;DHT22;14163;-26.142;27.992;2023-11-22T16:18:05;31.90;99.90
26479;DHT22;14163;-26.142;27.992;2023-11-22T16:20:34;31.90;99.90
26479;DHT22;14163;-26.142;27.992;2023-11-22T16:23:03;31.80;99.90
26479;DHT22;14163;-26.142;27.992;2023-11-22T16:25:32;31.80;99.90
26479;DHT22;14163;-26.142;27.992;2023-11-22T16:28:01;31.70;99.90
26479;DHT22;14163;-26.142;27.992;2023-11-22T16:30:32;31.70;99.90
26479;DHT22;14163;-26.142;27.992;2023-11-22T16:33:01;31.60;99.90
26479;DHT22;14163;-26.142;27.992;2023-11-22T16:35:30;31.60;99.90
26479;DHT22;14163;-26.142;27.992;2023-11-22T16:38:00;31.60;99.90
26479;DHT22;14163;-26.142;27.992;2023-11-22T16:40:30;31.60;99.90
26479;DHT22;14163;-26.142;27.992;2023-11-22T16:43:00;31.50;99.90
26479;DHT22;14163;-26.142;27.992;2023-11-22T16:45:32;31.60;99.90
26479;DHT22;14163;-26.142;27.992;2023-11-22T16:48:01;31.60;99.90
26479;DHT22;14163;-26.142;27.992;2023-11-22T16:50:31;31.60;99.90
26479;DHT22;14163;-26.142;27.992;2023-11-22T16:53:00;31.60;99.90
26479;DHT22;14163;-26.142;27.992;2023-11-22T16:55:29;31.60;99.90
26479;DHT22;14163;-26.142;27.992;2023-11-22T16:57:58;31.60;99.90
26479;DHT22;14163;-26.142;27.992;2023-11-22T17:00:28;31.50;99.90
26479;DHT22;14163;-26.142;27.992;2023-11-22T17:02:59;31.50;99.90
26479;DHT22;14163;-26.142;27.992;2023-11-22T17:05:29;31.50;99.90
26479;DHT22;14163;-26.142;27.992;2023-11-22T17:07:58;31.50;99.90
26479;DHT22;14163;-26.142;27.992;2023-11-22T17:10:27;31.50;99.90
26479;DHT22;14163;-26.142;27.992;2023-11-22T17:12:56;31.50;99.90
26479;DHT22;14163;-26.142;27.992;2023-11-22T17:15:25;31.40;99.90
26479;DHT22;14163;-26.142;27.992;2023-11-22T17:17:55;31.40;99.90
26479;DHT22;14163;-26.142;27.992;2023-11-22T17:20:29;31.30;99.90
26479;DHT22;14163;-26.142;27.992;2023-11-22T17:22:59;31.20;99.90
26479;DHT22;14163;-26.142;27.992;2023-11-22T17:25:28;31.20;99.90
26479;DHT22;14163;-26.142;27.992;2023-11-22T17:27:57;31.20;99.90
26479;DHT22;14163;-26.142;27.992;2023-11-22T17:30:26;31.10;99.90
26479;DHT22;14163;-26.142;27.992;2023-11-22T17:32:56;31.20;99.90
26479;DHT22;14163;-26.142;27.992;2023-11-22T17:35:25;31.10;99.90
26479;DHT22;14163;-26.142;27.992;2023-11-22T17:37:56;31.20;99.90
26479;DHT22;14163;-26.142;27.992;2023-11-22T17:40:27;31.20;99.90
26479;DHT22;14163;-26.142;27.992;2023-11-22T17:42:58;31.20;99.90
26479;DHT22;14163;-26.142;27.992;2023-11-22T17:45:28;31.10;99.90
26479;DHT22;14163;-26.142;27.992;2023-11-22T17:47:57;31.00;99.90
26479;DHT22;14163;-26.142;27.992;2023-11-22T17:50:26;30.70;99.30
26479;DHT22;14163;-26.142;27.992;2023-11-22T17:52:59;30.40;99.90
26479;DHT22;14163;-26.142;27.992;2023-11-22T17:55:28;30.20;99.40
26479;DHT22;14163;-26.142;27.992;2023-11-22T17:57:57;30.00;99.60
26479;DHT22;14163;-26.142;27.992;2023-11-22T18:00:26;29.90;99.20
26479;DHT22;14163;-26.142;27.992;2023-11-22T18:02:56;30.00;98.70
26479;DHT22;14163;-26.142;27.992;2023-11-22T18:05:26;29.90;98.90
26479;DHT22;14163;-26.142;27.992;2023-11-22T18:07:56;30.00;99.20
26479;DHT22;14163;-26.142;27.992;2023-11-22T18:10:26;30.00;98.40
26479;DHT22;14163;-26.142;27.992;2023-11-22T18:12:56;30.10;98.40
26479;DHT22;14163;-26.142;27.992;2023-11-22T18:15:25;30.10;98.50
26479;DHT22;14163;-26.142;27.992;2023-11-22T18:17:54;30.10;98.30
26479;DHT22;14163;-26.142;27.992;2023-11-22T18:20:24;30.10;98.20
26479;DHT22;14163;-26.142;27.992;2023-11-22T18:22:53;30.20;98.70
26479;DHT22;14163;-26.142;27.992;2023-11-22T18:25:22;30.20;99.90
26479;DHT22;14163;-26.142;27.992;2023-11-22T18:27:53;30.30;99.90
26479;DHT22;14163;-26.142;27.992;2023-11-22T18:30:22;30.40;99.90
26479;DHT22;14163;-26.142;27.992;2023-11-22T18:32:51;30.50;99.90
26479;DHT22;14163;-26.142;27.992;2023-11-22T18:35:20;30.50;99.90
26479;DHT22;14163;-26.142;27.992;2023-11-22T18:37:50;30.50;99.90
26479;DHT22;14163;-26.142;27.992;2023-11-22T18:40:19;30.50;99.90
26479;DHT22;14163;-26.142;27.992;2023-11-22T18:42:49;30.50;99.00
26479;DHT22;14163;-26.142;27.992;2023-11-22T18:45:20;30.40;99.70
26479;DHT22;14163;-26.142;27.992;2023-11-22T18:47:50;30.40;99.10
26479;DHT22;14163;-26.142;27.992;2023-11-22T18:50:23;30.30;99.50
26479;DHT22;14163;-26.142;27.992;2023-11-22T18:52:52;30.30;99.90
26479;DHT22;14163;-26.142;27.992;2023-11-22T18:55:21;30.20;99.00
26479;DHT22;14163;-26.142;27.992;2023-11-22T18:57:50;30.20;99.90
26479;DHT22;14163;-26.142;27.992;2023-11-22T19:00:21;30.20;99.40
26479;DHT22;14163;-26.142;27.992;2023-11-22T19:02:50;30.20;99.80
26479;DHT22;14163;-26.142;27.992;2023-11-22T19:05:20;30.10;99.90
26479;DHT22;14163;-26.142;27.992;2023-11-22T19:07:49;30.10;99.90
26479;DHT22;14163;-26.142;27.992;2023-11-22T19:10:19;30.10;99.90
26479;DHT22;14163;-26.142;27.992;2023-11-22T19:12:48;30.00;99.90
26479;DHT22;14163;-26.142;27.992;2023-11-22T19:15:18;30.00;99.90
26479;DHT22;14163;-26.142;27.992;2023-11-22T19:17:50;30.10;99.90
26479;DHT22;14163;-26.142;27.992;2023-11-22T19:20:19;30.10;99.90
26479;DHT22;14163;-26.142;27.992;2023-11-22T19:22:49;30.10;99.90
26479;DHT22;14163;-26.142;27.992;2023-11-22T19:25:18;30.10;99.90
26479;DHT22;14163;-26.142;27.992;2023-11-22T19:27:48;30.10;99.90
26479;DHT22;14163;-26.142;27.992;2023-11-22T19:30:18;30.10;99.90
26479;DHT22;14163;-26.142;27.992;2023-11-22T19:32:49;30.10;99.90
26479;DHT22;14163;-26.142;27.992;2023-11-22T19:35:18;30.10;99.90
26479;DHT22;14163;-26.142;27.992;2023-11-22T19:37:48;30.10;99.90
26479;DHT22;14163;-26.142;27.992;2023-11-22T19:40:17;30.00;99.90
26479;DHT22;14163;-26.142;27.992;2023-11-22T19:42:47;30.10;99.90
26479;DHT22;14163;-26.142;27.992;2023-11-22T19:45:18;30.00;99.90
26479;DHT22;14163;-26.142;27.992;2023-11-22T19:47:48;30.00;99.90
26479;DHT22;14163;-26.142;27.992;2023-11-22T19:50:18;30.00;99.90
26479;DHT22;14163;-26.142;27.992;2023-11-22T19:52:49;30.00;99.90
26479;DHT22;14163;-26.142;27.992;2023-11-22T19:55:18;30.00;99.90
26479;DHT22;14163;-26.142;27.992;2023-11-22T19:57:47;30.10;99.90
26479;DHT22;14163;-26.142;27.992;2023-11-22T20:00:17;30.10;99.90
26479;DHT22;14163;-26.142;27.992;2023-11-22T22:10:18;24.60;99.90
26479;DHT22;14163;-26.142;27.992;2023-11-22T22:12:48;24.70;99.90
26479;DHT22;14163;-26.142;27.992;2023-11-22T22:15:17;25.30;99.90
26479;DHT22;14163;-26.142;27.992;2023-11-22T22:17:47;26.10;99.90
26479;DHT22;14163;-26.142;27.992;2023-11-22T22:20:17;26.80;99.90
26479;DHT22;14163;-26.142;27.992;2023-11-22T22:22:47;27.40;99.90
26479;DHT22;14163;-26.142;27.992;2023-11-22T22:25:17;27.80;99.90
26479;DHT22;14163;-26.142;27.992;2023-11-22T22:27:48;28.10;99.90
26479;DHT22;14163;-26.142;27.992;2023-11-22T22:30:17;28.30;99.90
26479;DHT22;14163;-26.142;27.992;2023-11-22T22:32:46;28.50;99.90
26479;DHT22;14163;-26.142;27.992;2023-11-22T22:35:15;28.60;99.90
26479;DHT22;14163;-26.142;27.992;2023-11-22T22:37:44;28.70;99.90
26479;DHT22;14163;-26.142;27.992;2023-11-22T22:40:12;28.80;99.90
26479;DHT22;14163;-26.142;27.992;2023-11-22T22:42:43;28.80;99.90
26479;DHT22;14163;-26.142;27.992;2023-11-22T22:45:12;28.90;99.90
26479;DHT22;14163;-26.142;27.992;2023-11-22T22:47:41;29.00;99.90
26479;DHT22;14163;-26.142;27.992;2023-11-22T22:50:10;28.90;99.90
26479;DHT22;14163;-26.142;27.992;2023-11-22T22:52:40;28.90;99.90
26479;DHT22;14163;-26.142;27.992;2023-11-22T22:55:09;28.90;99.90
26479;DHT22;14163;-26.142;27.992;2023-11-22T22:57:38;29.00;99.90
26479;DHT22;14163;-26.142;27.992;2023-11-22T23:00:12;28.90;99.90
26479;DHT22;14163;-26.142;27.992;2023-11-22T23:02:50;28.90;99.90
26479;DHT22;14163;-26.142;27.992;2023-11-22T23:05:20;28.90;99.90
26479;DHT22;14163;-26.142;27.992;2023-11-22T23:07:49;28.90;99.90
26479;DHT22;14163;-26.142;27.992;2023-11-22T23:10:18;28.90;99.90
26479;DHT22;14163;-26.142;27.992;2023-11-22T23:12:48;28.90;99.90
26479;DHT22;14163;-26.142;27.992;2023-11-22T23:15:20;28.90;99.90
26479;DHT22;14163;-26.142;27.992;2023-11-22T23:17:50;28.90;99.90
26479;DHT22;14163;-26.142;27.992;2023-11-22T23:20:19;28.80;99.90
26479;DHT22;14163;-26.142;27.992;2023-11-22T23:22:48;28.90;99.90
26479;DHT22;14163;-26.142;27.992;2023-11-22T23:25:18;28.80;99.90
26479;DHT22;14163;-26.142;27.992;2023-11-22T23:27:48;28.70;99.90
26479;DHT22;14163;-26.142;27.992;2023-11-22T23:30:19;28.60;99.90
26479;DHT22;14163;-26.142;27.992;2023-11-22T23:32:49;28.60;99.90
26479;DHT22;14163;-26.142;27.992;2023-11-22T23:35:18;28.50;99.90
26479;DHT22;14163;-26.142;27.992;2023-11-22T23:37:48;28.50;99.90
26479;DHT22;14163;-26.142;27.992;2023-11-22T23:40:17;28.40;99.90
26479;DHT22;14163;-26.142;27.992;2023-11-22T23:42:51;28.40;99.90
26479;DHT22;14163;-26.142;27.992;2023-11-22T23:45:22;28.40;99.90
26479;DHT22;14163;-26.142;27.992;2023-11-22T23:47:51;28.30;99.90
26479;DHT22;14163;-26.142;27.992;2023-11-22T23:50:21;28.30;99.90
26479;DHT22;14163;-26.142;27.992;2023-11-22T23:52:50;28.40;99.90
26479;DHT22;14163;-26.142;27.992;2023-11-22T23:55:19;28.30;99.90
26479;DHT22;14163;-26.142;27.992;2023-11-22T23:57:49;28.30;99.90
